SBFI

Details ICAO SBFI (IGU)
Name Foz Do Iguacu
Region Brazil
Timezone America/Sao_Paulo (UTC-2.0)
Plans Departing 91
Arriving 88
Stats Elevation 787 ft / 240 m (AMSL)
Location -25.595790° -54.487443°
Runways 1
Magnetic Variation 16.284° W
Sunrise 2017-12-12 08:41:55 UTC / 2017-12-12 06:41:55 Local
Sunset 2017-12-12 22:24:27 UTC / 2017-12-12 20:24:27 Local
Advertisement - Login to hide

Runways

ID Width Length Bearing (true) Bearing (mag) Surface Threshold Offset Overrun Length
14 148 ft / 45 m 7,232 ft / 2,204 m 130.83° 147.11° Asphalt 0 ft / 0 m 164 ft / 50 m
32 148 ft / 45 m 7,232 ft / 2,204 m 310.83° 327.11° Asphalt 0 ft / 0 m 197 ft / 60 m

Approach Navaids

Runway Type Ident Frequency Range Bearing (true) Bearing (mag) Slope Elevation
14 Localiser IFI 109.10 MHz 18 nm / 33 km 130.98° 147.27° - 761 ft / 232 m (AMSL)
14 Glidescope IFI 109.10 MHz 10 nm / 19 km 130.83° 147.11° 3.00° 761 ft / 232 m (AMSL)

Map

Weather


0- 5 10 15 20 25 30 35+ Temperature / ° C

Clouds and Precipitation
Forecast for 2017-12-12 18:00 UTC. Updated 41 minutes ago

Ground ~20,000 ft ~40,000 ft Winds

METAR

SBFI 121800Z 35006KT 9999 FEW040 31/19 Q1011

TAF

TAF SBFI 120900Z 1212/1312 05009KT CAVOK TX31/1217Z TN22/1309Z PROB30 1216/1220 01006KT PROB30 1300/1306 10002KT RMK PDN

Frequencies

Tower 118.80 MHz SBFI_TWR
Approach 119.15 MHz SBFI_APP
Warning: Do not use this data for real-world aviation or navigation. No guarantee of current accuracy is given.